Hlavní strana
METAR-TAF:

METAR-TAF

Letiště :

Cornelia, Georgie, Spojené státy americké

zeměpisná šířka: 34-29-59N, zeměpisná délka: 083-33-24W, výška: 441 m

Aktuální stav počasí

Zpráva byla vytvořena před 16 minutami, v 01:55 UTC
Severní vítr 3 kt
Teplota 5°C
Vlhkost vzduchu 100%
Tlak 1020 hPa
Viditelnost: 4.8 km
Zataženo ve výšce 700 ft
silný déšť

METAR: KAJR 190155Z AUTO 35003KT 3SM +RA OVC007 05/05 A3012 RMK AO2 T00460046

Čas: 21:11 (02:11 UTC)


TAF: chybějící

Stav a předpovědi počasí z více než 4 000 letišť (zprávy METAR a TAF).

Červené a žluté tečky na mapě představují dostupné meteorologické stanice.

Když kurzor umístíte na tečku, zobrazí se název stanice.

Pak kliknutím zobrazíte stav a předpověď počasí.

Chcete-li změnit mapu, kliknutím na zelené tlačítko se znaménkem +mapu přiblížíte, kliknutím na zelené tlačítko se znaménkem – mapu oddálíte a kliknutím na zelené šipky přejdete na sousední mapy.


METAR-TAF: